createdAt,value
2023-02-11T00:01:25.247Z,12.13
2023-02-11T00:03:52.995Z,15.15
2023-02-11T00:06:20.546Z,13.73
2023-02-11T00:08:48.079Z,14.90
2023-02-11T00:11:16.768Z,20.65
2023-02-11T00:13:46.202Z,17.38
2023-02-11T00:16:15.297Z,12.32
2023-02-11T00:18:43.049Z,16.77
2023-02-11T00:21:11.110Z,18.65
2023-02-11T00:23:38.761Z,23.92
2023-02-11T00:26:12.519Z,19.60
2023-02-11T00:28:40.074Z,12.07
2023-02-11T00:31:09.085Z,18.43
2023-02-11T00:33:36.815Z,12.55
2023-02-11T00:36:05.197Z,17.27
2023-02-11T00:38:32.747Z,12.15
2023-02-11T00:41:00.456Z,11.73
2023-02-11T00:43:28.067Z,16.17
2023-02-11T00:45:55.707Z,19.73
2023-02-11T00:48:24.667Z,18.77
2023-02-11T00:50:52.216Z,13.65
2023-02-11T00:53:19.771Z,10.02
2023-02-11T00:55:47.424Z,14.70
2023-02-11T00:58:15.135Z,24.33
2023-02-11T01:00:42.726Z,13.07
2023-02-11T01:03:10.367Z,17.85
2023-02-11T01:05:39.377Z,20.00
2023-02-11T01:08:07.115Z,17.73
2023-02-11T01:10:34.712Z,16.38
2023-02-11T01:13:02.657Z,11.10
2023-02-11T01:15:30.383Z,13.55
2023-02-11T01:17:57.950Z,12.73
2023-02-11T01:20:28.371Z,17.77
2023-02-11T01:22:57.239Z,10.43
2023-02-11T01:25:24.803Z,15.95
2023-02-11T01:27:52.329Z,15.35
2023-02-11T01:30:19.886Z,18.67
2023-02-11T01:32:47.479Z,14.67
2023-02-11T01:35:15.057Z,15.77
2023-02-11T01:37:42.864Z,10.93
2023-02-11T01:40:14.991Z,16.77
2023-02-11T01:42:42.920Z,13.82
2023-02-11T01:45:28.825Z,15.00
2023-02-11T01:47:56.404Z,23.27
2023-02-11T01:50:23.961Z,18.15
2023-02-11T01:52:51.621Z,13.68
2023-02-11T01:55:37.941Z,13.82
2023-02-11T01:58:06.206Z,16.87
2023-02-11T02:00:36.185Z,13.38
2023-02-11T02:03:06.561Z,16.65
2023-02-11T02:05:36.716Z,13.27
2023-02-11T02:08:07.815Z,13.57
2023-02-11T02:10:37.712Z,17.97
2023-02-11T02:13:05.279Z,17.75
2023-02-11T02:15:34.198Z,10.18
2023-02-11T02:18:03.642Z,9.60
2023-02-11T02:20:53.104Z,12.70
2023-02-11T02:23:29.722Z,15.87
2023-02-11T02:26:21.153Z,16.58
2023-02-11T02:29:00.740Z,15.50
2023-02-11T02:31:36.888Z,17.95
2023-02-11T02:34:08.037Z,15.00
2023-02-11T02:36:38.400Z,17.33
2023-02-11T02:39:08.761Z,13.25
2023-02-11T02:41:36.855Z,13.60
2023-02-11T02:44:04.485Z,13.00
2023-02-11T02:46:33.110Z,15.18
2023-02-11T02:49:00.992Z,16.67
2023-02-11T02:51:40.563Z,16.45
2023-02-11T02:54:25.932Z,17.05
2023-02-11T02:56:55.790Z,16.88
2023-02-11T02:59:28.472Z,14.60
2023-02-11T03:01:59.121Z,7.67
2023-02-11T03:04:30.620Z,12.13
2023-02-11T03:07:04.099Z,16.08
2023-02-11T03:09:34.268Z,12.95
2023-02-11T03:12:03.046Z,13.82
2023-02-11T03:14:31.831Z,14.33
2023-02-11T03:17:01.457Z,14.93
2023-02-11T03:19:31.590Z,13.90
2023-02-11T03:22:00.902Z,21.27
2023-02-11T03:24:30.729Z,19.48
2023-02-11T03:26:59.167Z,11.60
2023-02-11T03:29:32.389Z,18.35
2023-02-11T03:32:02.366Z,17.60
2023-02-11T03:34:32.050Z,15.32
2023-02-11T03:37:04.955Z,17.63
2023-02-11T03:39:35.193Z,15.97
2023-02-11T03:42:03.831Z,20.30
2023-02-11T03:44:33.896Z,14.43
2023-02-11T03:47:02.372Z,16.52
2023-02-11T03:49:30.374Z,12.80
2023-02-11T03:51:58.749Z,14.20
2023-02-11T03:54:29.741Z,15.90
2023-02-11T03:56:58.662Z,14.98
2023-02-11T03:59:26.283Z,10.48
2023-02-11T04:01:53.861Z,9.48
2023-02-11T04:04:21.583Z,16.60
2023-02-11T04:06:49.147Z,13.10
2023-02-11T04:09:17.389Z,20.90
2023-02-11T04:11:46.300Z,11.43
2023-02-11T04:14:13.887Z,19.30
2023-02-11T04:16:41.474Z,14.87
2023-02-11T04:19:09.073Z,19.85
2023-02-11T04:21:36.639Z,15.68
2023-02-11T04:24:04.351Z,13.18
2023-02-11T04:26:31.931Z,12.48
2023-02-11T04:29:00.858Z,20.07
2023-02-11T04:31:28.627Z,15.10
2023-02-11T04:33:56.276Z,15.05
2023-02-11T04:36:23.852Z,17.80
2023-02-11T04:38:51.417Z,15.15
2023-02-11T04:41:18.976Z,14.70
2023-02-11T04:43:46.546Z,11.15
2023-02-11T04:46:15.563Z,12.55
2023-02-11T04:48:43.165Z,11.98
2023-02-11T04:51:10.724Z,15.38
2023-02-11T04:53:38.290Z,10.93
2023-02-11T04:56:06.083Z,15.30
2023-02-11T04:58:33.669Z,13.07
2023-02-11T05:01:06.220Z,14.27
2023-02-11T05:03:35.198Z,11.63
2023-02-11T05:06:02.766Z,14.10
2023-02-11T05:08:30.315Z,11.63
2023-02-11T05:10:57.951Z,12.93
2023-02-11T05:13:25.790Z,13.50
2023-02-11T05:15:53.476Z,15.65
2023-02-11T05:18:21.214Z,17.73
2023-02-11T05:20:50.443Z,12.50
2023-02-11T05:23:17.975Z,18.90
2023-02-11T05:25:45.538Z,18.30
2023-02-11T05:28:13.129Z,10.98
2023-02-11T05:30:40.771Z,14.93
2023-02-11T05:33:08.438Z,16.30
2023-02-11T05:35:36.035Z,11.73
2023-02-11T05:38:04.940Z,8.65
2023-02-11T05:40:32.540Z,16.55
2023-02-11T05:43:00.120Z,13.97
2023-02-11T05:45:27.803Z,14.38
2023-02-11T05:47:55.346Z,14.98
2023-02-11T05:50:22.970Z,6.65
2023-02-11T05:52:50.543Z,13.85
2023-02-11T05:55:19.818Z,20.90
2023-02-11T05:57:47.372Z,9.80
2023-02-11T06:00:15.806Z,14.60
2023-02-11T06:02:43.440Z,17.42
2023-02-11T06:05:11.121Z,8.68
2023-02-11T06:07:38.697Z,15.53
2023-02-11T06:10:06.712Z,11.90
2023-02-11T06:12:36.986Z,10.60
2023-02-11T06:15:04.733Z,10.32
2023-02-11T06:17:33.649Z,12.60
2023-02-11T06:20:02.842Z,13.00
2023-02-11T06:22:30.421Z,10.27
2023-02-11T06:25:01.683Z,9.55
2023-02-11T06:27:29.729Z,14.23
2023-02-11T06:29:58.683Z,11.15
2023-02-11T06:32:43.451Z,10.27
2023-02-11T06:35:12.766Z,9.35
2023-02-11T06:37:40.387Z,9.40
2023-02-11T06:40:08.117Z,14.43
2023-02-11T06:42:36.192Z,7.57
2023-02-11T06:45:06.302Z,15.47
2023-02-11T06:47:33.888Z,9.32
2023-02-11T06:50:01.649Z,12.05
2023-02-11T06:52:29.265Z,18.83
2023-02-11T06:54:56.865Z,12.02
2023-02-11T06:57:24.441Z,7.87
2023-02-11T06:59:52.009Z,12.05
2023-02-11T07:02:21.365Z,14.40
2023-02-11T07:04:48.975Z,11.50
2023-02-11T07:07:16.552Z,13.38
2023-02-11T07:09:44.249Z,14.17
2023-02-11T07:12:11.845Z,12.02
2023-02-11T07:14:39.599Z,13.63
2023-02-11T07:17:07.186Z,9.90
2023-02-11T07:19:36.204Z,11.88
2023-02-11T07:22:03.758Z,11.20
2023-02-11T07:24:31.372Z,11.73
2023-02-11T07:26:58.902Z,11.85
2023-02-11T07:29:26.468Z,11.52
2023-02-11T07:31:54.058Z,8.60
2023-02-11T07:34:21.666Z,14.73
2023-02-11T07:36:50.960Z,12.60
2023-02-11T07:39:19.991Z,19.98
2023-02-11T07:41:49.320Z,17.25
2023-02-11T07:44:16.941Z,14.60
2023-02-11T07:46:45.304Z,11.73
2023-02-11T07:49:13.050Z,11.40
2023-02-11T07:51:40.651Z,11.82
2023-02-11T07:54:09.580Z,15.70
2023-02-11T07:56:37.134Z,10.60
2023-02-11T07:59:04.930Z,14.23
2023-02-11T08:01:32.520Z,12.25
2023-02-11T08:04:01.169Z,17.73
2023-02-11T08:06:30.395Z,13.60
2023-02-11T08:08:58.096Z,13.48
2023-02-11T08:11:28.162Z,10.73
2023-02-11T08:13:56.461Z,15.27
2023-02-11T08:16:24.772Z,11.05
2023-02-11T08:18:52.842Z,10.70
2023-02-11T08:21:21.297Z,14.38
2023-02-11T08:23:49.740Z,15.00
2023-02-11T08:26:19.006Z,10.30
2023-02-11T08:28:48.828Z,9.85
2023-02-11T08:31:17.302Z,11.93
2023-02-11T08:33:45.322Z,7.30
2023-02-11T08:36:14.092Z,9.30
2023-02-11T08:38:41.678Z,10.07
2023-02-11T08:41:09.296Z,8.27
2023-02-11T08:43:37.514Z,7.60
2023-02-11T08:46:06.643Z,8.30
2023-02-11T08:48:34.256Z,15.80
2023-02-11T08:51:01.825Z,8.93
2023-02-11T08:53:29.456Z,14.38
2023-02-11T08:55:57.008Z,13.95
2023-02-11T08:58:24.656Z,11.45
2023-02-11T09:00:52.579Z,12.07
2023-02-11T09:03:21.819Z,11.63
2023-02-11T09:05:50.039Z,13.32
2023-02-11T09:08:17.884Z,9.57
2023-02-11T09:10:45.460Z,10.38
2023-02-11T09:13:13.513Z,7.90
2023-02-11T09:15:41.093Z,10.35
2023-02-11T09:18:08.705Z,10.10
2023-02-11T09:20:37.715Z,9.75
2023-02-11T09:23:05.309Z,8.15
2023-02-11T09:25:32.869Z,9.00
2023-02-11T09:28:00.496Z,6.28
2023-02-11T09:30:28.177Z,9.95
2023-02-11T09:32:55.861Z,9.77
2023-02-11T09:35:23.419Z,9.13
2023-02-11T09:37:52.348Z,8.67
2023-02-11T09:40:20.257Z,9.10
2023-02-11T09:42:51.065Z,9.60
2023-02-11T09:45:20.361Z,8.25
2023-02-11T09:47:53.889Z,16.63
2023-02-11T09:50:24.199Z,8.63
2023-02-11T09:52:56.632Z,12.23
2023-02-11T09:55:26.365Z,10.68
2023-02-11T09:57:54.174Z,10.98
2023-02-11T10:00:24.228Z,14.00
2023-02-11T10:03:15.564Z,6.87
2023-02-11T10:05:47.750Z,10.40
2023-02-11T10:08:21.269Z,11.35
2023-02-11T10:10:51.983Z,10.23
2023-02-11T10:13:26.114Z,8.20
2023-02-11T10:15:58.022Z,13.47
2023-02-11T10:18:41.309Z,6.97
2023-02-11T10:21:15.132Z,10.50
2023-02-11T10:23:46.015Z,9.05
2023-02-11T10:26:14.929Z,11.00
2023-02-11T10:28:44.229Z,6.90
2023-02-11T10:31:15.822Z,5.80
2023-02-11T10:33:46.095Z,8.25
2023-02-11T10:36:14.365Z,8.10
2023-02-11T10:38:41.971Z,4.80
2023-02-11T10:41:14.919Z,9.40
2023-02-11T10:43:43.453Z,4.93
2023-02-11T10:46:16.584Z,6.18
2023-02-11T10:48:45.773Z,10.13
2023-02-11T10:51:18.536Z,12.23
2023-02-11T10:53:46.232Z,11.03
2023-02-11T10:56:20.795Z,9.40
2023-02-11T10:58:56.330Z,5.32
2023-02-11T11:01:25.113Z,7.13
2023-02-11T11:03:53.638Z,8.32
2023-02-11T11:06:30.430Z,11.27
2023-02-11T11:08:58.133Z,7.50
2023-02-11T11:11:27.467Z,6.63
2023-02-11T11:13:56.474Z,6.68
2023-02-11T11:16:25.522Z,8.48
2023-02-11T11:18:53.865Z,5.60
2023-02-11T11:21:23.241Z,5.18
2023-02-11T11:23:53.220Z,8.20
2023-02-11T11:26:21.322Z,9.05
2023-02-11T11:28:55.256Z,5.55
2023-02-11T11:31:24.653Z,6.87
2023-02-11T11:33:53.806Z,6.57
2023-02-11T11:36:22.259Z,4.65
2023-02-11T11:38:51.449Z,6.53
2023-02-11T11:41:24.078Z,7.85
2023-02-11T11:44:00.445Z,6.73
2023-02-11T11:46:29.599Z,6.40
2023-02-11T11:49:01.160Z,8.00
2023-02-11T11:51:29.269Z,8.25
2023-02-11T11:54:00.414Z,7.15
2023-02-11T11:56:30.079Z,7.40
2023-02-11T11:59:01.550Z,7.60
2023-02-11T12:01:35.610Z,6.32
2023-02-11T12:04:19.123Z,4.57
2023-02-11T12:06:54.036Z,9.82
2023-02-11T12:09:27.483Z,6.10
2023-02-11T12:12:01.707Z,8.30
2023-02-11T12:14:35.911Z,8.48
2023-02-11T12:17:07.197Z,8.45
2023-02-11T12:19:58.926Z,7.05
2023-02-11T12:22:31.985Z,5.77
2023-02-11T12:25:07.454Z,7.68
2023-02-11T12:27:41.090Z,6.30
2023-02-11T12:30:19.724Z,6.40
2023-02-11T12:32:50.653Z,7.30
2023-02-11T12:35:31.401Z,5.10
2023-02-11T12:38:11.443Z,8.30
2023-02-11T12:40:42.946Z,5.28
2023-02-11T12:43:16.591Z,9.32
2023-02-11T12:45:53.033Z,9.07
2023-02-11T12:48:29.339Z,7.77
2023-02-11T12:51:00.205Z,7.55
2023-02-11T12:53:40.350Z,4.13
2023-02-11T12:56:13.796Z,6.70
2023-02-11T12:58:45.302Z,6.28
2023-02-11T13:01:17.868Z,7.07
2023-02-11T13:03:48.054Z,6.80
2023-02-11T13:06:17.904Z,4.70
2023-02-11T13:08:47.195Z,6.82
2023-02-11T13:11:16.567Z,4.05
2023-02-11T13:13:48.456Z,6.00
2023-02-11T13:16:21.491Z,5.18
2023-02-11T13:18:52.617Z,5.10
2023-02-11T13:21:38.141Z,3.95
2023-02-11T13:24:11.014Z,7.20
2023-02-11T13:26:43.906Z,6.07
2023-02-11T13:29:16.996Z,5.80
2023-02-11T13:31:53.615Z,4.75
2023-02-11T13:34:25.171Z,4.72
2023-02-11T13:36:56.351Z,7.78
2023-02-11T13:39:24.135Z,7.63
2023-02-11T13:41:52.867Z,5.20
2023-02-11T13:44:23.305Z,9.38
2023-02-11T13:46:54.340Z,12.73
2023-02-11T13:49:22.865Z,7.15
2023-02-11T13:51:50.815Z,5.93
2023-02-11T13:54:24.643Z,7.85
2023-02-11T13:57:07.125Z,9.70
2023-02-11T13:59:48.163Z,7.20
2023-02-11T14:02:42.118Z,7.38
2023-02-11T14:05:54.048Z,8.23
2023-02-11T14:08:54.453Z,10.95
2023-02-11T14:11:41.595Z,5.13
2023-02-11T14:14:23.982Z,10.15
2023-02-11T14:17:25.110Z,8.80
2023-02-11T14:19:54.160Z,7.27
2023-02-11T14:22:25.990Z,9.80
2023-02-11T14:24:55.077Z,6.47
2023-02-11T14:27:26.479Z,6.68
2023-02-11T14:30:10.249Z,6.90
2023-02-11T14:32:43.884Z,9.83
2023-02-11T14:35:15.827Z,4.18
2023-02-11T14:37:50.636Z,9.63
2023-02-11T14:40:24.419Z,6.28
2023-02-11T14:42:52.467Z,5.82
2023-02-11T14:45:22.058Z,6.67
2023-02-11T14:47:53.099Z,4.97
2023-02-11T14:50:23.823Z,7.28
2023-02-11T14:52:52.201Z,8.45
2023-02-11T14:55:29.123Z,8.25
2023-02-11T14:58:06.751Z,6.13
2023-02-11T15:00:34.452Z,8.68
2023-02-11T15:03:02.117Z,5.80
2023-02-11T15:05:31.132Z,7.10
2023-02-11T15:08:00.269Z,6.80
2023-02-11T15:10:31.203Z,4.83
2023-02-11T15:12:59.407Z,6.35
2023-02-11T15:15:27.512Z,4.97
2023-02-11T15:17:55.472Z,7.18
2023-02-11T15:20:25.840Z,5.57
2023-02-11T15:22:56.925Z,5.90
2023-02-11T15:25:24.681Z,6.10
2023-02-11T15:27:53.136Z,4.93
2023-02-11T15:30:34.151Z,7.22
2023-02-11T15:33:03.250Z,4.85
2023-02-11T15:35:32.592Z,7.03
2023-02-11T15:38:01.944Z,5.00
2023-02-11T15:40:32.348Z,6.68
2023-02-11T15:43:02.597Z,8.30
2023-02-11T15:45:31.783Z,7.72
2023-02-11T15:48:01.124Z,6.03
2023-02-11T15:50:29.840Z,4.82
2023-02-11T15:52:58.767Z,6.03
2023-02-11T15:55:28.626Z,5.93
2023-02-11T15:57:57.110Z,6.07
2023-02-11T16:00:26.108Z,6.17
2023-02-11T16:02:54.136Z,5.03
2023-02-11T16:05:29.257Z,5.32
2023-02-11T16:07:57.034Z,4.40
2023-02-11T16:10:27.250Z,5.95
2023-02-11T16:12:57.174Z,8.77
2023-02-11T16:15:32.060Z,4.13
2023-02-11T16:17:59.922Z,6.47
2023-02-11T16:20:27.539Z,7.57
2023-02-11T16:22:55.414Z,6.97
2023-02-11T16:25:23.427Z,4.53
2023-02-11T16:27:52.748Z,5.18
2023-02-11T16:30:28.638Z,4.55
2023-02-11T16:32:56.331Z,3.10
2023-02-11T16:35:23.936Z,3.75
2023-02-11T16:37:51.517Z,4.13
2023-02-11T16:40:19.363Z,4.75
2023-02-11T16:42:46.939Z,4.25
2023-02-11T16:45:15.429Z,4.13
2023-02-11T16:47:44.563Z,3.97
2023-02-11T16:50:19.997Z,5.70
2023-02-11T16:52:47.723Z,4.50
2023-02-11T16:55:15.433Z,8.35
2023-02-11T16:57:43.020Z,7.20
2023-02-11T17:00:12.328Z,4.82
2023-02-11T17:02:40.049Z,6.40
2023-02-11T17:05:16.337Z,3.83
2023-02-11T17:07:43.913Z,4.70
2023-02-11T17:10:14.800Z,5.82
2023-02-11T17:12:42.369Z,4.90
2023-02-11T17:15:10.492Z,3.40
2023-02-11T17:17:38.057Z,2.88
2023-02-11T17:20:06.753Z,3.67
2023-02-11T17:22:36.842Z,3.58
2023-02-11T17:25:04.466Z,2.95
2023-02-11T17:27:32.021Z,3.03
2023-02-11T17:29:59.628Z,4.88
2023-02-11T17:32:27.165Z,4.30
2023-02-11T17:34:55.153Z,7.18
2023-02-11T17:37:22.745Z,6.30
2023-02-11T17:39:51.799Z,4.33
2023-02-11T17:42:20.239Z,4.20
2023-02-11T17:44:47.826Z,4.28
2023-02-11T17:47:15.390Z,4.60
2023-02-11T17:49:43.257Z,3.03
2023-02-11T17:52:10.982Z,4.00
2023-02-11T17:54:39.147Z,3.58
2023-02-11T17:57:08.058Z,3.55
2023-02-11T17:59:36.299Z,3.97
2023-02-11T18:02:03.947Z,3.78
2023-02-11T18:04:31.559Z,3.23
2023-02-11T18:06:59.414Z,3.40
2023-02-11T18:09:27.403Z,3.33
2023-02-11T18:11:54.976Z,3.63
2023-02-11T18:14:23.964Z,4.57
2023-02-11T18:16:52.014Z,4.37
2023-02-11T18:19:20.028Z,3.63
2023-02-11T18:21:48.917Z,3.90
2023-02-11T18:24:16.747Z,3.30
2023-02-11T18:26:44.300Z,4.47
2023-02-11T18:29:11.867Z,4.07
2023-02-11T18:31:40.901Z,4.85
2023-02-11T18:34:10.566Z,4.00
2023-02-11T18:36:38.362Z,3.47
2023-02-11T18:39:05.920Z,3.78
2023-02-11T18:41:33.518Z,3.63
2023-02-11T18:44:03.043Z,4.00
2023-02-11T18:46:31.370Z,3.60
2023-02-11T18:49:00.362Z,4.15
2023-02-11T18:51:27.950Z,3.72
2023-02-11T18:53:55.690Z,4.67
2023-02-11T18:56:24.592Z,6.13
2023-02-11T18:58:52.432Z,3.97
2023-02-11T19:01:22.848Z,4.47
2023-02-11T19:03:50.750Z,5.38
2023-02-11T19:06:20.864Z,4.73
2023-02-11T19:08:48.732Z,4.40
2023-02-11T19:11:18.715Z,4.10
2023-02-11T19:13:47.709Z,5.10
2023-02-11T19:16:17.717Z,4.35
2023-02-11T19:18:45.333Z,4.40
2023-02-11T19:21:13.404Z,4.90
2023-02-11T19:23:42.322Z,4.07
2023-02-11T19:26:09.984Z,6.18
2023-02-11T19:28:38.059Z,4.57
2023-02-11T19:31:06.835Z,3.83
2023-02-11T19:33:34.421Z,3.30
2023-02-11T19:36:06.045Z,4.93
2023-02-11T19:38:34.938Z,5.00
2023-02-11T19:41:03.886Z,5.60
2023-02-11T19:43:31.746Z,4.37
2023-02-11T19:45:59.371Z,5.00
2023-02-11T19:48:26.979Z,4.10
2023-02-11T19:50:54.614Z,5.07
2023-02-11T19:53:22.311Z,4.68
2023-02-11T19:55:50.357Z,4.67
2023-02-11T19:58:19.544Z,5.00
2023-02-11T20:00:47.122Z,4.65
2023-02-11T20:03:14.726Z,4.07
2023-02-11T20:05:47.026Z,4.60
2023-02-11T20:08:17.033Z,5.73
2023-02-11T20:10:44.687Z,5.97
2023-02-11T20:13:12.259Z,4.57
2023-02-11T20:15:41.366Z,4.15
2023-02-11T20:18:08.989Z,4.55
2023-02-11T20:20:37.398Z,4.13
2023-02-11T20:23:04.956Z,5.00
2023-02-11T20:25:32.498Z,4.45
2023-02-11T20:28:00.175Z,4.18
2023-02-11T20:30:27.751Z,4.60
2023-02-11T20:35:10.915Z,3.70
2023-02-11T20:37:40.214Z,4.90
2023-02-11T20:40:09.123Z,3.78
2023-02-11T20:42:36.893Z,5.70
2023-02-11T20:45:04.770Z,3.90
2023-02-11T20:47:32.608Z,3.88
2023-02-11T20:50:00.395Z,3.45
2023-02-11T20:52:29.701Z,4.35
2023-02-11T20:54:57.608Z,4.53
2023-02-11T20:57:25.460Z,3.53
2023-02-11T20:59:53.325Z,3.42
2023-02-11T21:02:23.580Z,3.67
2023-02-11T21:04:52.539Z,4.40
2023-02-11T21:07:20.353Z,3.17
2023-02-11T21:09:49.521Z,4.20
2023-02-11T21:12:17.365Z,4.75
2023-02-11T21:14:45.324Z,3.60
2023-02-11T21:17:13.390Z,5.40
2023-02-11T21:19:41.546Z,3.90
2023-02-11T21:22:10.028Z,3.33
2023-02-11T21:24:38.216Z,3.60
2023-02-11T21:27:07.580Z,3.17
2023-02-11T21:29:45.745Z,3.40
2023-02-11T21:32:20.696Z,4.47
2023-02-11T21:34:48.503Z,4.35
2023-02-11T21:37:16.300Z,9.57
2023-02-11T21:39:44.113Z,4.15
2023-02-11T21:42:13.384Z,3.60
2023-02-11T21:44:41.227Z,3.90
2023-02-11T21:47:09.043Z,4.93
2023-02-11T21:49:36.824Z,3.60
2023-02-11T21:52:04.937Z,4.13
2023-02-11T21:54:32.928Z,4.80
2023-02-11T21:57:02.989Z,4.50
2023-02-11T21:59:32.806Z,3.92
2023-02-11T22:02:00.610Z,3.42
2023-02-11T22:04:28.442Z,2.83
2023-02-11T22:06:56.348Z,3.67
2023-02-11T22:09:24.154Z,2.80
2023-02-11T22:11:53.040Z,3.05
2023-02-11T22:14:20.828Z,3.53
2023-02-11T22:16:50.108Z,4.82
2023-02-11T22:19:18.864Z,3.65
2023-02-11T22:21:46.703Z,2.90
2023-02-11T22:24:14.477Z,2.95
2023-02-11T22:26:42.296Z,3.55
2023-02-11T22:29:10.826Z,4.63
2023-02-11T22:31:38.904Z,2.70
2023-02-11T22:34:08.308Z,3.50
2023-02-11T22:36:38.129Z,3.63
2023-02-11T22:39:08.133Z,3.35
2023-02-11T22:41:38.223Z,3.67
2023-02-11T22:44:06.183Z,3.78
2023-02-11T22:46:34.022Z,3.37
2023-02-11T22:49:01.792Z,3.50
2023-02-11T22:51:32.084Z,3.40
2023-02-11T22:54:01.722Z,3.28
2023-02-11T22:56:30.883Z,10.23
2023-02-11T22:58:59.316Z,4.27
2023-02-11T23:01:27.153Z,7.45
2023-02-11T23:03:55.059Z,3.67
2023-02-11T23:06:23.115Z,5.05
2023-02-11T23:08:52.547Z,5.10
2023-02-11T23:11:22.492Z,4.67
2023-02-11T23:13:51.607Z,4.43
2023-02-11T23:16:21.665Z,3.78
2023-02-11T23:18:50.545Z,8.10
2023-02-11T23:21:22.206Z,5.25
2023-02-11T23:23:54.911Z,10.97
2023-02-11T23:26:22.767Z,5.32
2023-02-11T23:28:50.569Z,5.25
2023-02-11T23:31:20.523Z,4.45
2023-02-11T23:33:49.080Z,5.05
2023-02-11T23:36:18.244Z,6.73
2023-02-11T23:38:46.455Z,6.68
2023-02-11T23:41:16.714Z,5.03
2023-02-11T23:43:44.902Z,3.65
2023-02-11T23:46:13.016Z,3.47
2023-02-11T23:48:41.354Z,4.33
2023-02-11T23:51:10.635Z,3.88
2023-02-11T23:53:38.967Z,4.22
2023-02-11T23:56:11.149Z,3.95
2023-02-11T23:58:40.518Z,5.00
